Time;durP1;ratioP1;P1;durP2;ratioP2;P2;SDS_P1;SDS_P2;PMS_P1;PMS_P2;Temp;Humidity;BMP_temperature;BMP_pressure;BME280_temperature;BME280_humidity;BME280_pressure;Samples;Min_cycle;Max_cycle;Signal;HPM_P1;HPM_P2
2022/03/01 00:01:49;;;;;;;;;;;3.20;99.90;;;;;;5067799;28;19925;-75
2022/03/01 00:04:16;;;;;;;;;;;3.10;99.90;;;;;;5067791;28;19982;-76
2022/03/01 00:06:43;;;;;;;;;;;3.10;99.90;;;;;;5051383;28;19928;-75
2022/03/01 00:09:10;;;;;;;;;;;3.10;99.90;;;;;;5067712;28;20314;-75
2022/03/01 00:11:38;;;;;;;;;;;3.10;99.90;;;;;;5067471;28;19929;-75
2022/03/01 00:14:05;;;;;;;;;;;3.00;99.90;;;;;;5067888;28;19924;-75
2022/03/01 00:16:32;;;;;;;;;;;3.00;99.90;;;;;;5067660;28;19925;-75
2022/03/01 00:19:00;;;;;;;;;;;3.00;99.90;;;;;;5050659;28;19929;-74
2022/03/01 00:21:28;;;;;;;;;;;3.00;99.90;;;;;;5051065;28;19940;-75
2022/03/01 00:23:54;;;;;;;;;;;3.00;99.90;;;;;;5050901;28;20015;-75
2022/03/01 00:26:21;;;;;;;;;;;2.90;99.90;;;;;;5051299;28;19932;-73
2022/03/01 00:28:48;;;;;;;;;;;2.80;99.90;;;;;;5050738;28;19928;-73
2022/03/01 00:31:15;;;;;;;;;;;2.70;99.90;;;;;;5051088;28;19924;-72
2022/03/01 00:33:42;;;;;;;;;;;2.70;99.90;;;;;;5050795;28;19929;-75
2022/03/01 00:36:10;;;;;;;;;;;2.60;99.90;;;;;;5050385;28;19925;-75
2022/03/01 00:38:37;;;;;;;;;;;2.60;99.90;;;;;;5050828;28;19925;-75
2022/03/01 00:41:04;;;;;;;;;;;2.50;99.90;;;;;;5067190;28;19928;-75
2022/03/01 00:43:31;;;;;;;;;;;2.50;99.90;;;;;;5050496;28;19983;-75
2022/03/01 00:45:58;;;;;;;;;;;2.40;99.90;;;;;;5050543;28;19931;-75
2022/03/01 00:48:24;;;;;;;;;;;2.50;99.90;;;;;;5050754;28;19928;-74
2022/03/01 00:50:51;;;;;;;;;;;2.50;99.90;;;;;;5050163;28;19925;-75
2022/03/01 00:53:20;;;;;;;;;;;2.50;99.90;;;;;;5050362;28;19924;-74
2022/03/01 00:55:47;;;;;;;;;;;2.50;99.90;;;;;;5050779;28;19925;-75
2022/03/01 00:58:14;;;;;;;;;;;2.50;99.90;;;;;;5067346;28;19929;-75
2022/03/01 01:00:41;;;;;;;;;;;2.50;99.90;;;;;;5050367;28;19924;-75
2022/03/01 01:03:08;;;;;;;;;;;2.60;99.90;;;;;;5067156;28;19924;-75
2022/03/01 01:05:35;;;;;;;;;;;2.60;99.90;;;;;;5050789;28;19924;-75
2022/03/01 01:08:01;;;;;;;;;;;2.50;99.90;;;;;;5052449;28;20383;-75
2022/03/01 01:10:29;;;;;;;;;;;2.40;99.90;;;;;;5054138;28;19925;-75
2022/03/01 01:12:56;;;;;;;;;;;2.30;99.90;;;;;;5054534;28;19925;-75
2022/03/01 01:15:23;;;;;;;;;;;2.30;99.90;;;;;;5054283;28;19928;-75
2022/03/01 01:17:50;;;;;;;;;;;2.30;99.90;;;;;;5081828;28;19924;-74
2022/03/01 01:20:17;;;;;;;;;;;2.30;99.90;;;;;;5081627;28;19924;-75
2022/03/01 01:22:45;;;;;;;;;;;2.40;99.90;;;;;;5074164;28;19931;-74
2022/03/01 01:25:13;;;;;;;;;;;2.60;99.90;;;;;;5074359;28;19994;-75
2022/03/01 01:27:42;;;;;;;;;;;2.70;99.90;;;;;;5074526;28;19925;-74
2022/03/01 01:30:11;;;;;;;;;;;2.80;99.90;;;;;;5074056;28;19924;-75
2022/03/01 01:32:38;;;;;;;;;;;3.00;99.90;;;;;;5074203;28;19925;-75
2022/03/01 01:35:05;;;;;;;;;;;3.10;99.90;;;;;;5074134;28;20015;-74
2022/03/01 01:37:32;;;;;;;;;;;3.00;99.90;;;;;;5074139;28;19974;-75
2022/03/01 01:39:59;;;;;;;;;;;2.90;99.90;;;;;;5073551;28;19932;-75
2022/03/01 01:42:26;;;;;;;;;;;2.80;99.90;;;;;;5074080;28;19924;-73
2022/03/01 01:44:54;;;;;;;;;;;2.70;99.90;;;;;;5074251;28;19925;-75
2022/03/01 01:47:21;;;;;;;;;;;2.60;99.90;;;;;;5073843;28;19925;-72
2022/03/01 01:49:48;;;;;;;;;;;2.50;99.90;;;;;;5073560;28;19925;-75
2022/03/01 01:52:15;;;;;;;;;;;2.40;99.90;;;;;;5073645;28;19932;-74
2022/03/01 01:54:41;;;;;;;;;;;2.30;99.90;;;;;;5073949;28;19969;-75
2022/03/01 01:57:15;;;;;;;;;;;2.20;99.90;;;;;;5073163;28;19931;-75
2022/03/01 01:59:42;;;;;;;;;;;2.20;99.90;;;;;;5073436;28;20011;-75
2022/03/01 02:02:12;;;;;;;;;;;2.20;99.90;;;;;;5073325;28;20370;-74
2022/03/01 02:04:38;;;;;;;;;;;2.00;99.90;;;;;;5073705;28;19924;-75
2022/03/01 02:07:06;;;;;;;;;;;2.00;99.90;;;;;;5073678;28;20342;-74
2022/03/01 02:09:33;;;;;;;;;;;1.90;99.90;;;;;;5073222;28;19924;-73
2022/03/01 02:11:59;;;;;;;;;;;1.80;99.90;;;;;;5073570;28;19944;-75
2022/03/01 02:14:26;;;;;;;;;;;1.80;99.90;;;;;;5073231;28;19928;-74
2022/03/01 02:16:53;;;;;;;;;;;1.80;99.90;;;;;;5073467;28;19924;-75
2022/03/01 02:19:21;;;;;;;;;;;1.80;99.90;;;;;;5071788;28;19931;-74
2022/03/01 02:21:51;;;;;;;;;;;1.80;99.90;;;;;;5073340;28;20269;-75
2022/03/01 02:24:18;;;;;;;;;;;1.80;99.90;;;;;;5073367;28;20284;-75
2022/03/01 02:26:45;;;;;;;;;;;1.80;99.90;;;;;;5072943;28;19928;-75
2022/03/01 02:29:12;;;;;;;;;;;1.90;99.90;;;;;;5072532;28;19924;-75
2022/03/01 02:31:39;;;;;;;;;;;1.90;99.90;;;;;;5073442;28;20284;-74
2022/03/01 02:34:06;;;;;;;;;;;1.80;99.90;;;;;;5073140;28;19928;-74
2022/03/01 02:36:33;;;;;;;;;;;1.80;99.90;;;;;;5071105;28;19973;-76
2022/03/01 02:39:02;;;;;;;;;;;1.70;99.90;;;;;;5054378;28;19940;-75
2022/03/01 02:41:28;;;;;;;;;;;1.60;99.90;;;;;;5069680;28;19932;-75
2022/03/01 02:43:55;;;;;;;;;;;1.60;99.90;;;;;;5069748;28;19951;-75
2022/03/01 02:46:22;;;;;;;;;;;1.60;99.90;;;;;;5070328;28;19924;-75
2022/03/01 02:48:49;;;;;;;;;;;1.50;99.90;;;;;;5052696;28;19932;-74
2022/03/01 02:51:16;;;;;;;;;;;1.40;99.90;;;;;;5069195;28;19928;-76
2022/03/01 02:53:42;;;;;;;;;;;1.40;99.90;;;;;;5069499;28;19929;-75
2022/03/01 02:56:11;;;;;;;;;;;1.40;99.90;;;;;;5069514;28;19924;-75
2022/03/01 02:58:37;;;;;;;;;;;1.30;99.90;;;;;;5069457;28;19924;-75
2022/03/01 03:01:04;;;;;;;;;;;1.20;99.90;;;;;;5069000;28;19928;-75
2022/03/01 03:03:31;;;;;;;;;;;1.10;99.90;;;;;;5069265;28;19929;-76
2022/03/01 03:05:58;;;;;;;;;;;1.00;99.90;;;;;;5069136;28;20342;-75
2022/03/01 03:08:25;;;;;;;;;;;1.00;99.90;;;;;;5069450;28;19936;-76
2022/03/01 03:10:51;;;;;;;;;;;1.00;99.90;;;;;;5068588;28;20355;-75
2022/03/01 03:13:20;;;;;;;;;;;1.10;99.90;;;;;;5069179;28;19925;-75
2022/03/01 03:15:47;;;;;;;;;;;1.10;99.90;;;;;;5069125;28;19964;-77
2022/03/01 03:18:14;;;;;;;;;;;1.20;99.90;;;;;;5069137;28;20334;-76
2022/03/01 03:20:41;;;;;;;;;;;1.20;99.90;;;;;;5068882;28;19928;-76
2022/03/01 03:23:08;;;;;;;;;;;1.30;99.90;;;;;;5068988;28;19924;-76
2022/03/01 03:25:35;;;;;;;;;;;1.40;99.90;;;;;;5068687;28;19932;-76
2022/03/01 03:28:01;;;;;;;;;;;1.30;99.90;;;;;;5068525;28;19944;-76
2022/03/01 03:30:30;;;;;;;;;;;1.30;99.90;;;;;;5068310;28;19925;-76
2022/03/01 03:32:56;;;;;;;;;;;1.30;99.90;;;;;;5068309;28;19925;-76
2022/03/01 03:35:24;;;;;;;;;;;1.30;99.90;;;;;;5068363;28;19940;-75
2022/03/01 03:37:50;;;;;;;;;;;1.30;99.90;;;;;;5068445;28;19925;-76
2022/03/01 03:40:17;;;;;;;;;;;1.30;99.90;;;;;;5068120;28;19925;-76
2022/03/01 03:42:45;;;;;;;;;;;1.30;99.90;;;;;;5068128;28;19982;-76
2022/03/01 03:45:12;;;;;;;;;;;1.40;99.90;;;;;;5068301;28;19925;-76
2022/03/01 03:47:41;;;;;;;;;;;1.50;99.90;;;;;;5068159;28;19950;-76
2022/03/01 03:50:09;;;;;;;;;;;1.50;99.90;;;;;;5067618;28;20392;-74
2022/03/01 03:52:36;;;;;;;;;;;1.60;99.90;;;;;;5051374;28;20027;-74
2022/03/01 03:55:05;;;;;;;;;;;1.70;99.90;;;;;;5068261;28;19932;-74
2022/03/01 03:57:32;;;;;;;;;;;1.70;99.90;;;;;;5067935;28;19931;-74
2022/03/01 03:59:59;;;;;;;;;;;1.80;99.90;;;;;;5067574;28;20046;-75
2022/03/01 04:02:26;;;;;;;;;;;1.90;99.90;;;;;;5067620;28;19935;-74
2022/03/01 04:04:54;;;;;;;;;;;1.90;99.90;;;;;;5076287;28;19925;-73
2022/03/01 04:07:21;;;;;;;;;;;1.90;99.90;;;;;;5071096;28;19924;-73
2022/03/01 04:09:48;;;;;;;;;;;2.10;99.90;;;;;;5071081;28;19925;-74
2022/03/01 04:12:15;;;;;;;;;;;2.10;99.90;;;;;;5071340;28;19960;-71
2022/03/01 04:14:42;;;;;;;;;;;2.10;99.90;;;;;;5071490;28;19924;-76
2022/03/01 04:17:09;;;;;;;;;;;2.20;99.90;;;;;;5071269;28;19932;-76
2022/03/01 04:19:36;;;;;;;;;;;2.30;99.90;;;;;;5070611;28;19932;-74
2022/03/01 04:22:04;;;;;;;;;;;2.30;99.90;;;;;;5071256;28;19924;-74
2022/03/01 04:24:31;;;;;;;;;;;2.30;99.90;;;;;;5071057;28;19924;-73
2022/03/01 04:26:58;;;;;;;;;;;2.40;99.90;;;;;;5071144;28;19928;-73
2022/03/01 04:29:25;;;;;;;;;;;2.30;99.90;;;;;;5070774;28;19951;-74
2022/03/01 04:31:52;;;;;;;;;;;2.30;99.90;;;;;;5070950;28;19930;-73
2022/03/01 04:34:19;;;;;;;;;;;2.30;99.90;;;;;;5070806;28;19925;-75
2022/03/01 04:36:46;;;;;;;;;;;2.30;99.90;;;;;;5052080;28;19975;-74
2022/03/01 04:39:14;;;;;;;;;;;2.30;99.90;;;;;;5067163;28;19959;-75
2022/03/01 04:41:41;;;;;;;;;;;2.30;99.90;;;;;;5067333;28;19932;-74
2022/03/01 04:44:08;;;;;;;;;;;2.30;99.90;;;;;;5067376;28;19925;-75
2022/03/01 04:46:35;;;;;;;;;;;2.30;99.90;;;;;;5073454;28;19924;-75
2022/03/01 04:49:02;;;;;;;;;;;2.30;99.90;;;;;;5070121;28;20399;-75
2022/03/01 04:51:28;;;;;;;;;;;2.30;99.90;;;;;;5087161;28;20287;-74
2022/03/01 04:53:55;;;;;;;;;;;2.30;99.90;;;;;;5087962;28;19928;-75
2022/03/01 04:56:24;;;;;;;;;;;2.30;99.90;;;;;;5087558;28;19931;-75
2022/03/01 04:58:51;;;;;;;;;;;2.30;99.90;;;;;;5087112;28;19932;-74
2022/03/01 05:01:18;;;;;;;;;;;2.40;99.90;;;;;;5087425;28;19924;-75
2022/03/01 05:03:45;;;;;;;;;;;2.40;99.90;;;;;;5087406;28;19932;-74
2022/03/01 05:06:12;;;;;;;;;;;2.50;99.90;;;;;;5087716;28;19925;-75
2022/03/01 05:08:39;;;;;;;;;;;2.50;99.90;;;;;;5087732;28;20019;-74
2022/03/01 05:11:06;;;;;;;;;;;2.60;99.90;;;;;;5087525;28;20011;-75
2022/03/01 05:13:35;;;;;;;;;;;2.60;99.90;;;;;;5087811;28;19924;-75
2022/03/01 05:16:02;;;;;;;;;;;2.60;99.90;;;;;;5087796;28;20407;-75
2022/03/01 05:18:28;;;;;;;;;;;2.60;99.90;;;;;;5087588;28;19924;-75
2022/03/01 05:20:55;;;;;;;;;;;2.70;99.90;;;;;;5087219;28;19932;-75
2022/03/01 05:23:22;;;;;;;;;;;2.70;99.90;;;;;;5087206;28;19932;-76
2022/03/01 05:25:49;;;;;;;;;;;2.70;99.90;;;;;;5087625;28;20011;-75
2022/03/01 05:28:16;;;;;;;;;;;2.70;99.90;;;;;;5087400;28;19992;-76
2022/03/01 05:30:44;;;;;;;;;;;2.80;99.90;;;;;;5069800;28;20386;-75
2022/03/01 05:33:11;;;;;;;;;;;2.90;99.90;;;;;;5087386;28;19924;-75
2022/03/01 05:35:38;;;;;;;;;;;2.90;99.90;;;;;;5087540;28;19935;-75
2022/03/01 05:38:07;;;;;;;;;;;2.90;99.90;;;;;;5087024;28;19924;-75
2022/03/01 05:40:34;;;;;;;;;;;2.90;99.90;;;;;;5086125;28;19924;-74
2022/03/01 05:43:01;;;;;;;;;;;2.90;99.90;;;;;;5063285;28;19925;-76
2022/03/01 05:45:28;;;;;;;;;;;3.00;99.90;;;;;;5068690;28;19928;-76
2022/03/01 05:47:57;;;;;;;;;;;2.90;99.90;;;;;;5062121;28;19931;-76
2022/03/01 05:50:25;;;;;;;;;;;2.90;99.90;;;;;;5086106;28;19924;-76
2022/03/01 05:52:52;;;;;;;;;;;2.90;99.90;;;;;;5086124;28;19924;-75
2022/03/01 05:55:19;;;;;;;;;;;2.90;99.90;;;;;;5088359;28;19924;-75
2022/03/01 05:57:46;;;;;;;;;;;2.90;99.90;;;;;;5089916;28;19946;-74
2022/03/01 06:00:15;;;;;;;;;;;2.80;99.90;;;;;;5089582;28;20027;-75
2022/03/01 06:02:43;;;;;;;;;;;2.80;99.90;;;;;;5073799;28;19925;-75
2022/03/01 06:05:12;;;;;;;;;;;2.80;99.90;;;;;;5072681;28;19932;-75
2022/03/01 06:07:39;;;;;;;;;;;2.80;99.90;;;;;;5072441;28;19936;-74
2022/03/01 06:10:06;;;;;;;;;;;2.80;99.90;;;;;;5072042;28;20410;-74
2022/03/01 06:12:33;;;;;;;;;;;2.80;99.90;;;;;;5072009;28;19925;-74
2022/03/01 06:15:00;;;;;;;;;;;2.80;99.90;;;;;;5089455;28;19956;-76
2022/03/01 06:17:27;;;;;;;;;;;2.80;99.90;;;;;;5089831;28;20417;-75
2022/03/01 06:19:54;;;;;;;;;;;2.90;99.90;;;;;;5079475;28;20015;-74
2022/03/01 06:22:22;;;;;;;;;;;2.90;99.90;;;;;;5052592;28;19928;-77
2022/03/01 06:24:49;;;;;;;;;;;2.90;99.90;;;;;;5052525;28;19935;-77
2022/03/01 06:27:16;;;;;;;;;;;2.90;99.90;;;;;;5052468;28;19926;-75
2022/03/01 06:29:42;;;;;;;;;;;2.90;99.90;;;;;;5062360;28;19925;-76
2022/03/01 06:32:09;;;;;;;;;;;2.80;99.90;;;;;;5072449;28;20023;-76
2022/03/01 06:34:36;;;;;;;;;;;2.80;99.90;;;;;;5072471;28;19935;-75
2022/03/01 06:37:03;;;;;;;;;;;2.70;99.90;;;;;;5072584;28;19925;-76
2022/03/01 06:39:32;;;;;;;;;;;2.70;99.90;;;;;;5071442;28;19924;-74
2022/03/01 06:41:59;;;;;;;;;;;2.70;99.90;;;;;;5071699;28;19925;-73
2022/03/01 06:44:26;;;;;;;;;;;2.70;99.90;;;;;;5071854;28;19946;-73
2022/03/01 06:46:53;;;;;;;;;;;2.60;99.90;;;;;;5072141;28;19925;-73
2022/03/01 06:49:20;;;;;;;;;;;2.60;99.90;;;;;;5071017;28;19979;-74
2022/03/01 06:51:47;;;;;;;;;;;2.60;99.90;;;;;;5071007;28;19968;-73
2022/03/01 06:54:13;;;;;;;;;;;2.60;99.90;;;;;;5071835;28;19930;-74
2022/03/01 06:56:42;;;;;;;;;;;2.60;99.90;;;;;;5072261;28;19924;-76
2022/03/01 06:59:08;;;;;;;;;;;2.60;99.90;;;;;;5071065;28;19928;-75
2022/03/01 07:01:35;;;;;;;;;;;2.60;99.90;;;;;;5071760;28;19928;-75
2022/03/01 07:04:02;;;;;;;;;;;2.60;99.90;;;;;;5071476;28;19924;-73
2022/03/01 07:06:29;;;;;;;;;;;2.60;99.90;;;;;;5070820;28;19929;-75
2022/03/01 07:08:55;;;;;;;;;;;2.60;99.90;;;;;;5070670;28;19928;-75
2022/03/01 07:11:23;;;;;;;;;;;2.50;99.90;;;;;;5075109;28;19974;-71
2022/03/01 07:13:51;;;;;;;;;;;2.50;99.90;;;;;;5071254;28;19924;-75
2022/03/01 07:16:18;;;;;;;;;;;2.50;99.90;;;;;;5071271;28;19998;-75
2022/03/01 07:18:45;;;;;;;;;;;2.50;99.90;;;;;;5070814;28;19924;-75
2022/03/01 07:21:11;;;;;;;;;;;2.50;99.90;;;;;;5071155;28;19932;-77
2022/03/01 07:23:40;;;;;;;;;;;2.50;99.90;;;;;;5067469;28;19935;-75
2022/03/01 07:26:07;;;;;;;;;;;2.50;99.90;;;;;;5061037;28;20499;-75
2022/03/01 07:28:34;;;;;;;;;;;2.50;99.90;;;;;;5088366;28;19931;-75
2022/03/01 07:31:03;;;;;;;;;;;2.50;99.90;;;;;;5087820;28;19956;-75
2022/03/01 07:33:29;;;;;;;;;;;2.60;99.90;;;;;;5087830;28;19943;-75
2022/03/01 07:35:56;;;;;;;;;;;2.60;99.90;;;;;;5088216;28;19931;-75
2022/03/01 07:38:23;;;;;;;;;;;2.60;99.90;;;;;;5088252;28;19924;-75
2022/03/01 07:40:50;;;;;;;;;;;2.60;99.90;;;;;;5070775;28;19929;-76
2022/03/01 07:43:17;;;;;;;;;;;2.60;99.90;;;;;;5088140;28;19926;-77
2022/03/01 07:45:43;;;;;;;;;;;2.70;99.90;;;;;;5088141;28;19930;-76
2022/03/01 07:48:12;;;;;;;;;;;2.70;99.90;;;;;;5082502;28;19944;-75
2022/03/01 07:50:41;;;;;;;;;;;2.80;99.90;;;;;;5070741;28;19970;-76
2022/03/01 07:53:09;;;;;;;;;;;2.90;99.90;;;;;;5070804;28;19925;-76
2022/03/01 07:58:23;;;;;;;;;;;3.10;99.90;;;;;;5068473;28;19920;-75
2022/03/01 08:00:50;;;;;;;;;;;3.20;99.90;;;;;;5070491;28;19928;-76
2022/03/01 08:03:19;;;;;;;;;;;3.40;99.90;;;;;;5071036;28;19924;-76
2022/03/01 08:05:46;;;;;;;;;;;3.50;99.90;;;;;;5070745;28;19924;-76
2022/03/01 08:08:13;;;;;;;;;;;3.60;99.90;;;;;;5070576;28;19924;-76
2022/03/01 08:10:40;;;;;;;;;;;3.70;99.90;;;;;;5069754;28;19925;-76
2022/03/01 08:13:07;;;;;;;;;;;3.80;99.90;;;;;;5084558;28;19932;-73
2022/03/01 08:15:34;;;;;;;;;;;3.80;99.90;;;;;;5066981;28;19979;-76
2022/03/01 08:18:01;;;;;;;;;;;3.90;99.90;;;;;;5069295;28;19924;-77
2022/03/01 08:20:30;;;;;;;;;;;4.10;99.90;;;;;;5086857;28;19924;-76
2022/03/01 08:22:57;;;;;;;;;;;4.20;99.90;;;;;;5082165;28;20019;-77
2022/03/01 08:25:25;;;;;;;;;;;4.30;99.90;;;;;;5078221;28;20015;-77
2022/03/01 08:27:51;;;;;;;;;;;4.40;99.90;;;;;;5070218;28;19948;-76
2022/03/01 08:30:18;;;;;;;;;;;4.50;99.90;;;;;;5086060;28;19924;-76
2022/03/01 08:32:47;;;;;;;;;;;4.50;99.90;;;;;;5086362;28;20051;-77
2022/03/01 08:35:14;;;;;;;;;;;4.50;99.90;;;;;;5086800;28;19932;-76
2022/03/01 08:37:45;;;;;;;;;;;4.60;99.90;;;;;;5085899;28;21321;-76
2022/03/01 08:40:12;;;;;;;;;;;4.60;99.90;;;;;;5069125;28;19940;-76
2022/03/01 08:42:39;;;;;;;;;;;4.60;99.90;;;;;;5069631;28;20326;-77
2022/03/01 08:45:07;;;;;;;;;;;4.80;99.90;;;;;;5086556;28;20383;-76
2022/03/01 08:47:34;;;;;;;;;;;4.90;99.90;;;;;;5086851;28;19924;-77
2022/03/01 08:50:01;;;;;;;;;;;5.10;99.90;;;;;;5086188;28;19933;-77
2022/03/01 08:52:28;;;;;;;;;;;5.30;99.90;;;;;;5086675;28;19924;-77
2022/03/01 08:54:59;;;;;;;;;;;5.30;99.90;;;;;;5086567;28;19935;-77
2022/03/01 08:57:26;;;;;;;;;;;5.30;99.90;;;;;;5086850;28;19951;-77
2022/03/01 08:59:53;;;;;;;;;;;5.30;99.90;;;;;;5086334;28;19924;-77
2022/03/01 09:02:20;;;;;;;;;;;5.30;99.90;;;;;;5086358;28;19924;-75
2022/03/01 09:04:47;;;;;;;;;;;5.30;99.90;;;;;;5069815;28;19924;-77
2022/03/01 09:07:14;;;;;;;;;;;5.30;99.90;;;;;;5069465;28;19924;-77
2022/03/01 09:09:41;;;;;;;;;;;5.30;99.90;;;;;;5086195;28;19924;-77
2022/03/01 09:12:13;;;;;;;;;;;5.20;99.90;;;;;;5067858;28;19933;-77
2022/03/01 09:14:39;;;;;;;;;;;5.10;99.90;;;;;;5049559;28;19936;-78
2022/03/01 09:17:06;;;;;;;;;;;5.10;99.90;;;;;;5049623;28;19933;-77
2022/03/01 09:19:33;;;;;;;;;;;5.00;99.90;;;;;;5048981;28;19931;-77
2022/03/01 09:22:00;;;;;;;;;;;4.90;99.90;;;;;;5049329;28;19925;-77
2022/03/01 09:24:27;;;;;;;;;;;4.90;99.90;;;;;;5049173;28;19924;-77
2022/03/01 09:26:57;;;;;;;;;;;4.80;99.90;;;;;;5049689;28;20028;-77
2022/03/01 09:29:25;;;;;;;;;;;4.80;99.90;;;;;;5050865;28;19956;-76
2022/03/01 09:31:52;;;;;;;;;;;4.80;99.90;;;;;;5053280;28;19935;-77
2022/03/01 09:34:19;;;;;;;;;;;4.90;99.90;;;;;;5052888;28;19971;-78
2022/03/01 09:36:46;;;;;;;;;;;5.00;99.90;;;;;;5053474;28;19925;-77
2022/03/01 09:39:13;;;;;;;;;;;5.30;99.90;;;;;;5052761;28;19925;-77
2022/03/01 09:41:40;;;;;;;;;;;5.50;99.90;;;;;;5053043;28;19998;-76
2022/03/01 09:44:07;;;;;;;;;;;5.80;99.90;;;;;;5052423;28;19925;-75
2022/03/01 09:46:35;;;;;;;;;;;6.00;99.90;;;;;;5080828;28;19924;-73
2022/03/01 09:49:03;;;;;;;;;;;6.40;99.90;;;;;;5073222;28;19951;-73
2022/03/01 09:51:30;;;;;;;;;;;6.90;99.90;;;;;;5090055;28;20364;-76
2022/03/01 09:53:58;;;;;;;;;;;7.30;99.90;;;;;;5084872;28;19948;-76
2022/03/01 09:56:24;;;;;;;;;;;7.60;99.90;;;;;;5081456;28;19924;-76
2022/03/01 09:58:52;;;;;;;;;;;7.50;99.90;;;;;;5062299;28;19924;-76
2022/03/01 10:01:19;;;;;;;;;;;7.60;99.90;;;;;;5083107;28;19924;-76
2022/03/01 10:03:49;;;;;;;;;;;7.60;99.90;;;;;;5069098;28;19959;-76
2022/03/01 10:06:17;;;;;;;;;;;7.50;99.90;;;;;;5069010;28;20427;-74
2022/03/01 10:08:44;;;;;;;;;;;7.50;99.90;;;;;;5068986;28;19925;-73
2022/03/01 10:11:11;;;;;;;;;;;7.50;99.90;;;;;;5079452;28;19931;-73
2022/03/01 10:13:39;;;;;;;;;;;7.60;99.90;;;;;;5072686;28;19932;-73
2022/03/01 10:16:06;;;;;;;;;;;7.60;99.90;;;;;;5072414;28;19929;-74
2022/03/01 10:18:34;;;;;;;;;;;7.70;99.90;;;;;;5089435;28;19931;-74
2022/03/01 10:21:04;;;;;;;;;;;7.50;99.90;;;;;;5072336;28;19924;-74
2022/03/01 10:23:31;;;;;;;;;;;7.60;99.90;;;;;;5072249;28;19960;-74
2022/03/01 10:25:58;;;;;;;;;;;7.60;99.90;;;;;;5072321;28;19924;-75
2022/03/01 10:28:32;;;;;;;;;;;7.70;99.90;;;;;;5072559;28;19928;-74
2022/03/01 10:31:09;;;;;;;;;;;7.90;99.90;;;;;;5072015;28;19932;-75
2022/03/01 10:33:35;;;;;;;;;;;7.90;99.90;;;;;;5071840;28;19932;-73
2022/03/01 10:36:04;;;;;;;;;;;8.10;99.90;;;;;;5065349;28;19928;-74
2022/03/01 10:38:31;;;;;;;;;;;8.20;99.90;;;;;;5078781;28;19932;-71
2022/03/01 10:40:58;;;;;;;;;;;8.20;99.90;;;;;;5086449;28;19936;-73
2022/03/01 10:43:26;;;;;;;;;;;8.20;99.90;;;;;;5070678;28;20028;-74
2022/03/01 10:45:53;;;;;;;;;;;8.20;99.90;;;;;;5072913;28;19928;-74
2022/03/01 10:48:24;;;;;;;;;;;8.20;99.90;;;;;;5072230;28;19962;-74
2022/03/01 10:50:58;;;;;;;;;;;8.20;99.90;;;;;;5072573;28;19924;-73
2022/03/01 10:53:29;;;;;;;;;;;8.40;99.90;;;;;;5072833;28;19935;-73
2022/03/01 10:56:00;;;;;;;;;;;8.40;99.90;;;;;;5072970;28;20359;-73
2022/03/01 10:58:29;;;;;;;;;;;8.50;99.90;;;;;;5072971;28;19924;-73
2022/03/01 11:00:56;;;;;;;;;;;8.70;99.90;;;;;;5072379;28;19924;-73
2022/03/01 11:03:23;;;;;;;;;;;8.80;99.90;;;;;;5072526;28;19925;-74
2022/03/01 11:05:51;;;;;;;;;;;8.80;99.90;;;;;;5072592;28;20380;-73
2022/03/01 11:08:18;;;;;;;;;;;9.70;99.90;;;;;;5072691;28;19931;-74
2022/03/01 11:10:47;;;;;;;;;;;10.40;99.90;;;;;;5072180;28;20513;-73
2022/03/01 11:13:14;;;;;;;;;;;10.50;99.90;;;;;;5072528;28;19931;-73
2022/03/01 11:15:56;;;;;;;;;;;10.50;99.90;;;;;;5072107;28;19925;-73
2022/03/01 11:18:27;;;;;;;;;;;10.00;99.90;;;;;;5079088;28;19935;-73
2022/03/01 11:20:55;;;;;;;;;;;10.00;99.90;;;;;;5070301;28;19924;-74
2022/03/01 11:23:22;;;;;;;;;;;9.70;99.90;;;;;;5071815;28;19928;-75
2022/03/01 11:25:52;;;;;;;;;;;9.60;99.90;;;;;;5072024;28;19964;-74
2022/03/01 11:28:29;;;;;;;;;;;9.60;99.90;;;;;;5072136;28;19924;-75
2022/03/01 11:30:56;;;;;;;;;;;9.60;99.90;;;;;;5071103;28;19925;-75
2022/03/01 11:33:31;;;;;;;;;;;9.80;99.90;;;;;;5085360;28;19932;-72
2022/03/01 11:35:58;;;;;;;;;;;9.80;99.90;;;;;;5082515;28;20387;-72
2022/03/01 11:38:26;;;;;;;;;;;9.90;99.90;;;;;;5071224;28;19947;-74
2022/03/01 11:41:00;;;;;;;;;;;10.10;99.90;;;;;;5079699;28;20395;-72
2022/03/01 11:43:29;;;;;;;;;;;10.30;99.90;;;;;;5082384;28;20032;-74
2022/03/01 11:45:56;;;;;;;;;;;10.60;99.90;;;;;;5071641;28;19924;-73
2022/03/01 11:48:27;;;;;;;;;;;10.80;99.90;;;;;;5088119;28;19985;-77
2022/03/01 11:50:56;;;;;;;;;;;11.10;99.90;;;;;;5079248;28;19946;-76
2022/03/01 11:53:24;;;;;;;;;;;11.40;99.90;;;;;;5086984;28;19990;-77
2022/03/01 11:55:52;;;;;;;;;;;11.30;99.90;;;;;;5087823;28;19947;-77
2022/03/01 11:58:21;;;;;;;;;;;11.40;99.90;;;;;;5087888;28;19925;-77
2022/03/01 12:00:50;;;;;;;;;;;12.20;99.90;;;;;;5070519;28;19948;-77
2022/03/01 12:03:18;;;;;;;;;;;13.80;99.90;;;;;;5087231;28;19925;-77
2022/03/01 12:05:47;;;;;;;;;;;14.00;99.90;;;;;;5087714;28;19932;-73
2022/03/01 12:08:15;;;;;;;;;;;13.90;99.90;;;;;;5087926;28;19924;-76
2022/03/01 12:10:51;;;;;;;;;;;13.90;99.90;;;;;;5064465;28;19928;-73
2022/03/01 12:13:18;;;;;;;;;;;13.80;99.90;;;;;;5067602;28;19924;-74
2022/03/01 12:15:55;;;;;;;;;;;13.20;99.90;;;;;;5051048;28;19925;-73
2022/03/01 12:18:28;;;;;;;;;;;12.50;99.90;;;;;;5051124;28;20342;-73
2022/03/01 12:20:55;;;;;;;;;;;12.30;99.90;;;;;;5066783;28;20318;-73
2022/03/01 12:23:26;;;;;;;;;;;12.70;99.90;;;;;;5050767;28;20285;-72
2022/03/01 12:25:54;;;;;;;;;;;13.30;99.90;;;;;;5050784;28;19932;-73
2022/03/01 12:28:21;;;;;;;;;;;14.10;99.90;;;;;;5050616;28;19925;-73
2022/03/01 12:30:50;;;;;;;;;;;15.50;99.90;;;;;;5050246;28;19924;-74
2022/03/01 12:33:18;;;;;;;;;;;17.30;99.90;;;;;;5050825;28;20306;-73
2022/03/01 12:35:55;;;;;;;;;;;19.00;99.90;;;;;;5051416;28;19925;-72
2022/03/01 12:38:22;;;;;;;;;;;18.60;99.90;;;;;;5073754;28;19924;-73
2022/03/01 12:40:49;;;;;;;;;;;18.20;99.90;;;;;;5075219;28;20405;-77
2022/03/01 12:43:16;;;;;;;;;;;18.00;99.90;;;;;;5066542;28;19939;-77
2022/03/01 12:45:44;;;;;;;;;;;18.50;99.90;;;;;;5070391;28;20145;-77
2022/03/01 12:48:15;;;;;;;;;;;18.60;99.90;;;;;;5070196;28;19925;-77
2022/03/01 12:50:46;;;;;;;;;;;17.90;99.90;;;;;;5069916;28;19932;-77
2022/03/01 12:53:14;;;;;;;;;;;16.70;99.90;;;;;;5070017;28;20310;-76
2022/03/01 12:55:41;;;;;;;;;;;15.20;99.90;;;;;;5068752;28;19968;-76
2022/03/01 12:58:15;;;;;;;;;;;14.00;99.90;;;;;;5067571;28;19924;-77
2022/03/01 13:00:42;;;;;;;;;;;13.30;99.90;;;;;;5083198;28;20010;-76
2022/03/01 13:03:09;;;;;;;;;;;12.90;99.90;;;;;;5076198;28;20311;-78
2022/03/01 13:05:37;;;;;;;;;;;12.60;99.90;;;;;;5080211;28;20343;-76
2022/03/01 13:08:04;;;;;;;;;;;12.50;99.90;;;;;;5070912;28;20479;-77
2022/03/01 13:10:35;;;;;;;;;;;12.20;99.90;;;;;;5074703;28;20327;-77
2022/03/01 13:13:12;;;;;;;;;;;12.00;99.90;;;;;;5073922;28;19925;-77
2022/03/01 13:15:39;;;;;;;;;;;11.90;99.90;;;;;;5074419;28;20009;-77
2022/03/01 13:18:09;;;;;;;;;;;11.80;99.90;;;;;;5074247;28;19972;-77
2022/03/01 13:20:41;;;;;;;;;;;11.50;99.90;;;;;;5073034;28;19932;-76
2022/03/01 13:23:09;;;;;;;;;;;11.50;99.90;;;;;;5073727;28;19974;-77
2022/03/01 13:25:36;;;;;;;;;;;11.50;99.90;;;;;;5073959;28;19931;-76
2022/03/01 13:28:04;;;;;;;;;;;11.50;99.90;;;;;;5073532;28;19970;-75
2022/03/01 13:30:34;;;;;;;;;;;11.30;99.90;;;;;;5073241;28;19924;-75
2022/03/01 13:33:06;;;;;;;;;;;11.30;99.90;;;;;;5090051;28;19933;-76
2022/03/01 13:35:36;;;;;;;;;;;11.20;99.90;;;;;;5090510;28;19925;-76
2022/03/01 13:38:05;;;;;;;;;;;11.10;99.90;;;;;;5072580;28;19929;-79
2022/03/01 13:40:32;;;;;;;;;;;11.10;99.90;;;;;;5072518;28;19932;-75
2022/03/01 13:43:06;;;;;;;;;;;11.10;99.90;;;;;;5090100;28;19924;-75
2022/03/01 13:45:33;;;;;;;;;;;11.10;99.90;;;;;;5072960;28;19932;-75
2022/03/01 13:48:08;;;;;;;;;;;11.00;99.90;;;;;;5073132;28;19928;-75
2022/03/01 13:50:35;;;;;;;;;;;11.10;99.90;;;;;;5089488;28;20400;-76
2022/03/01 13:53:10;;;;;;;;;;;11.40;99.90;;;;;;5074179;28;19931;-79
2022/03/01 13:55:37;;;;;;;;;;;11.80;99.90;;;;;;5073156;28;19928;-76
2022/03/01 13:58:04;;;;;;;;;;;12.00;99.90;;;;;;5090146;28;19964;-77
2022/03/01 14:00:32;;;;;;;;;;;12.40;99.90;;;;;;5072408;28;19974;-77
2022/03/01 14:02:59;;;;;;;;;;;12.60;99.90;;;;;;5072866;28;19932;-78
2022/03/01 14:05:27;;;;;;;;;;;12.20;99.90;;;;;;5072731;28;19924;-78
2022/03/01 14:07:58;;;;;;;;;;;12.10;99.90;;;;;;5071243;28;19925;-73
2022/03/01 14:10:26;;;;;;;;;;;11.90;99.90;;;;;;5086678;28;20395;-77
2022/03/01 14:13:00;;;;;;;;;;;11.70;99.90;;;;;;5072478;28;20003;-76
2022/03/01 14:15:31;;;;;;;;;;;11.60;99.90;;;;;;5071308;28;19944;-78
2022/03/01 14:17:58;;;;;;;;;;;11.40;99.90;;;;;;5069574;28;20015;-76
2022/03/01 14:20:25;;;;;;;;;;;11.40;99.90;;;;;;5071713;28;19951;-76
2022/03/01 14:22:52;;;;;;;;;;;11.30;99.90;;;;;;5073425;28;19928;-76
2022/03/01 14:25:18;;;;;;;;;;;11.20;99.90;;;;;;5073237;28;19928;-76
2022/03/01 14:27:47;;;;;;;;;;;11.20;99.90;;;;;;5085841;28;19950;-78
2022/03/01 14:30:17;;;;;;;;;;;11.20;99.90;;;;;;5077217;28;19924;-76
2022/03/01 14:32:44;;;;;;;;;;;11.20;99.90;;;;;;5072869;28;19932;-76